Time;durP1;ratioP1;P1;durP2;ratioP2;P2;SDS_P1;SDS_P2;PMS_P1;PMS_P2;Temp;Humidity;BMP_temperature;BMP_pressure;BME280_temperature;BME280_humidity;BME280_pressure;Samples;Min_cycle;Max_cycle;Signal;HPM_P1;HPM_P2
2023/03/31 00:01:05;;;;;;;8.63;2.22;;;13.80;99.90;;;;;;4918556;29;20087;-69
2023/03/31 00:03:32;;;;;;;7.80;2.38;;;13.80;99.90;;;;;;4935374;29;20339;-69
2023/03/31 00:05:59;;;;;;;14.15;2.70;;;13.70;99.90;;;;;;4935923;29;20442;-69
2023/03/31 00:08:34;;;;;;;10.30;2.22;;;13.80;99.90;;;;;;4935074;29;20559;-68
2023/03/31 00:11:02;;;;;;;6.30;2.40;;;13.80;99.90;;;;;;4935166;29;20090;-70
2023/03/31 00:13:29;;;;;;;10.32;2.42;;;13.80;99.90;;;;;;4918292;29;20048;-68
2023/03/31 00:15:57;;;;;;;6.45;2.05;;;13.70;99.90;;;;;;4934170;29;20036;-68
2023/03/31 00:18:24;;;;;;;9.38;2.28;;;13.80;99.90;;;;;;4935023;29;20603;-69
2023/03/31 00:20:52;;;;;;;6.68;2.13;;;13.80;99.90;;;;;;4935847;29;20114;-68
2023/03/31 00:23:26;;;;;;;13.52;2.70;;;13.80;99.90;;;;;;4918090;29;20043;-70
2023/03/31 00:25:55;;;;;;;10.57;2.03;;;13.80;99.90;;;;;;4935046;29;20035;-69
2023/03/31 00:28:21;;;;;;;8.75;2.42;;;13.80;99.90;;;;;;4935119;29;20366;-70
2023/03/31 00:30:47;;;;;;;12.23;2.25;;;13.80;99.90;;;;;;4934626;29;20035;-68
2023/03/31 00:33:13;;;;;;;11.50;2.22;;;13.70;99.90;;;;;;4934776;29;20038;-69
2023/03/31 00:35:39;;;;;;;8.10;2.05;;;13.80;99.90;;;;;;4935431;29;20366;-69
2023/03/31 00:38:07;;;;;;;13.57;2.15;;;13.60;99.90;;;;;;4933735;29;20103;-69
2023/03/31 00:40:34;;;;;;;9.13;1.88;;;13.60;99.90;;;;;;4934691;29;20046;-68
2023/03/31 00:43:01;;;;;;;5.80;1.70;;;13.60;99.90;;;;;;4934568;29;20039;-69
2023/03/31 00:45:29;;;;;;;10.73;2.10;;;13.60;99.90;;;;;;4935222;29;20380;-70
2023/03/31 00:48:17;;;;;;;7.80;1.65;;;13.60;99.90;;;;;;4934935;29;20258;-68
2023/03/31 00:50:49;;;;;;;10.15;1.90;;;13.50;99.90;;;;;;4934662;29;20063;-69
2023/03/31 00:53:17;;;;;;;7.35;1.90;;;13.50;99.90;;;;;;4934774;29;20039;-69
2023/03/31 00:55:48;;;;;;;5.82;1.80;;;13.50;99.90;;;;;;4934615;29;20055;-69
2023/03/31 00:58:18;;;;;;;8.05;1.98;;;13.60;99.90;;;;;;4934464;29;20071;-69
2023/03/31 01:00:50;;;;;;;8.63;1.60;;;13.60;99.90;;;;;;4934319;29;20035;-68
2023/03/31 01:03:17;;;;;;;7.47;1.83;;;13.60;99.90;;;;;;4934151;29;20032;-69
2023/03/31 01:06:09;;;;;;;10.25;2.30;;;13.60;99.90;;;;;;4934770;29;20051;-69
2023/03/31 01:08:37;;;;;;;10.95;1.55;;;13.60;99.90;;;;;;4934245;29;20392;-69
2023/03/31 01:11:09;;;;;;;8.50;2.13;;;13.60;99.90;;;;;;4934195;29;20070;-69
2023/03/31 01:13:37;;;;;;;9.55;2.00;;;13.60;99.90;;;;;;4934291;29;20577;-69
2023/03/31 01:16:03;;;;;;;10.25;1.98;;;13.60;99.90;;;;;;4934143;29;20505;-68
2023/03/31 01:18:29;;;;;;;12.40;2.33;;;13.60;99.90;;;;;;4932977;29;20136;-68
2023/03/31 01:21:22;;;;;;;8.95;1.83;;;13.60;99.90;;;;;;4934459;29;20074;-69
2023/03/31 01:24:12;;;;;;;11.35;1.95;;;13.60;99.90;;;;;;4934422;29;20146;-68
2023/03/31 01:26:57;;;;;;;10.20;2.10;;;13.50;99.90;;;;;;4934030;29;20036;-68
2023/03/31 01:29:50;;;;;;;9.45;2.10;;;13.50;99.90;;;;;;4934027;29;20063;-69
2023/03/31 01:32:16;;;;;;;5.75;1.80;;;13.50;99.90;;;;;;4933708;29;20051;-68
2023/03/31 01:34:47;;;;;;;8.60;2.28;;;13.50;99.90;;;;;;4933762;29;20045;-69
2023/03/31 01:37:16;;;;;;;9.38;1.98;;;13.50;99.90;;;;;;4914925;29;20036;-69
2023/03/31 01:40:09;;;;;;;7.70;2.22;;;13.50;99.90;;;;;;4914839;29;20052;-69
2023/03/31 01:42:56;;;;;;;12.32;2.53;;;13.50;99.90;;;;;;4914628;29;20040;-69
2023/03/31 01:46:05;;;;;;;7.55;2.33;;;13.50;99.90;;;;;;4914796;29;20032;-68
2023/03/31 01:48:49;;;;;;;12.00;2.42;;;13.40;99.90;;;;;;4874546;29;20044;-68
2023/03/31 01:51:24;;;;;;;6.57;1.88;;;13.40;99.90;;;;;;4912060;29;20038;-69
2023/03/31 01:54:00;;;;;;;9.20;2.00;;;13.40;99.90;;;;;;4915658;29;20030;-69
2023/03/31 01:56:43;;;;;;;12.77;2.22;;;13.40;99.90;;;;;;4914460;29;20470;-69
2023/03/31 01:59:16;;;;;;;11.32;2.10;;;13.40;99.90;;;;;;4929454;29;20043;-69
2023/03/31 02:01:44;;;;;;;6.47;1.77;;;13.20;99.90;;;;;;4914805;29;20028;-69
2023/03/31 02:04:15;;;;;;;4.75;1.92;;;13.40;99.90;;;;;;4914841;29;20036;-69
2023/03/31 02:06:46;;;;;;;8.07;1.80;;;13.40;99.90;;;;;;4914790;29;20032;-69
2023/03/31 02:09:20;;;;;;;8.35;1.75;;;13.40;99.90;;;;;;4915025;29;20032;-70
2023/03/31 02:11:47;;;;;;;7.00;1.98;;;13.40;99.90;;;;;;4914784;29;20052;-70
2023/03/31 02:14:20;;;;;;;5.68;1.50;;;13.30;99.90;;;;;;4913433;29;20467;-69
2023/03/31 02:16:51;;;;;;;5.68;1.65;;;13.30;99.90;;;;;;4914313;29;20047;-70
2023/03/31 02:19:19;;;;;;;6.47;1.40;;;13.30;99.90;;;;;;4913289;29;20037;-69
2023/03/31 02:21:50;;;;;;;5.57;1.38;;;13.20;99.90;;;;;;4914285;29;20028;-70
2023/03/31 02:24:18;;;;;;;7.60;1.85;;;13.30;99.90;;;;;;4914338;29;20032;-70
2023/03/31 02:26:55;;;;;;;8.75;1.83;;;13.20;99.90;;;;;;4913856;29;20122;-70
2023/03/31 02:29:21;;;;;;;5.90;1.70;;;13.20;99.90;;;;;;4913294;29;20466;-70
2023/03/31 02:31:56;;;;;;;3.40;1.40;;;13.20;99.90;;;;;;4924406;29;20075;-69
2023/03/31 02:34:22;;;;;;;6.28;1.67;;;13.10;99.90;;;;;;4933331;29;20036;-70
2023/03/31 02:36:49;;;;;;;8.23;2.00;;;13.10;99.90;;;;;;4933061;29;20425;-69
2023/03/31 02:39:20;;;;;;;10.95;2.03;;;13.10;99.90;;;;;;4934533;29;20071;-69
2023/03/31 02:41:46;;;;;;;6.93;1.80;;;13.10;99.90;;;;;;4937395;29;20094;-70
2023/03/31 02:44:12;;;;;;;8.45;1.33;;;13.20;99.90;;;;;;4937056;29;20450;-70
2023/03/31 02:46:39;;;;;;;8.02;2.10;;;13.20;99.90;;;;;;4936780;29;20032;-70
2023/03/31 02:49:08;;;;;;;12.27;2.70;;;13.10;99.90;;;;;;4936697;29;20039;-69
2023/03/31 02:52:16;;;;;;;6.90;1.80;;;13.10;99.90;;;;;;4919690;29;20043;-70
2023/03/31 02:55:23;;;;;;;7.97;2.35;;;13.20;99.90;;;;;;4936529;29;20040;-69
2023/03/31 02:58:17;;;;;;;8.90;2.15;;;13.10;99.90;;;;;;4868929;29;20432;-70
2023/03/31 03:01:04;;;;;;;9.13;1.85;;;13.10;99.90;;;;;;4919385;29;20031;-69
2023/03/31 03:03:40;;;;;;;;;;;13.10;99.90;;;;;;4936950;29;20362;-69
2023/03/31 03:06:38;;;;;;;5.82;1.50;;;13.10;99.90;;;;;;4919785;29;19902;-69
2023/03/31 03:09:25;;;;;;;16.45;6.63;;;13.10;99.90;;;;;;4936455;29;20116;-69
2023/03/31 03:11:57;;;;;;;7.72;2.17;;;13.10;99.90;;;;;;4936506;29;20040;-69
2023/03/31 03:14:46;;;;;;;11.48;2.38;;;13.10;99.90;;;;;;4935026;29;20044;-69
2023/03/31 03:17:31;;;;;;;7.43;2.00;;;13.10;99.90;;;;;;4936172;29;20028;-69
2023/03/31 03:20:00;;;;;;;3.90;1.15;;;13.10;99.90;;;;;;4919247;29;20031;-68
2023/03/31 03:22:26;;;;;;;5.25;1.30;;;13.00;99.90;;;;;;4936048;29;20091;-69
2023/03/31 03:24:52;;;;;;;7.65;1.48;;;13.00;99.90;;;;;;4935942;29;20027;-69
2023/03/31 03:27:21;;;;;;;8.23;1.45;;;13.00;99.90;;;;;;4935845;29;20078;-69
2023/03/31 03:29:46;;;;;;;4.40;0.98;;;13.00;99.90;;;;;;4936394;29;20111;-69
2023/03/31 03:32:12;;;;;;;6.18;1.20;;;13.00;99.90;;;;;;4935908;29;20135;-69
2023/03/31 03:34:38;;;;;;;6.38;1.20;;;13.00;99.90;;;;;;4935779;29;20041;-69
2023/03/31 03:37:04;;;;;;;5.13;1.50;;;13.00;99.90;;;;;;4935755;29;20035;-69
2023/03/31 03:39:30;;;;;;;11.45;1.55;;;13.00;99.90;;;;;;4935748;29;20032;-68
2023/03/31 03:41:56;;;;;;;2.60;0.88;;;13.00;99.90;;;;;;4936249;29;20082;-70
2023/03/31 03:44:22;;;;;;;5.20;1.20;;;12.90;99.90;;;;;;4918885;29;20047;-69
2023/03/31 03:46:47;;;;;;;4.03;1.02;;;12.90;99.90;;;;;;4935727;29;20797;-69
2023/03/31 03:49:13;;;;;;;8.07;1.92;;;12.90;99.90;;;;;;4935348;29;20054;-69
2023/03/31 03:51:39;;;;;;;3.72;1.17;;;12.90;99.90;;;;;;4935613;29;20028;-68
2023/03/31 03:54:04;;;;;;;6.70;1.20;;;13.00;99.90;;;;;;4936030;29;20038;-69
2023/03/31 03:56:30;;;;;;;4.93;1.15;;;12.90;99.90;;;;;;4935656;29;20027;-69
2023/03/31 03:58:56;;;;;;;8.55;1.58;;;12.90;99.90;;;;;;4935786;29;20058;-69
2023/03/31 04:01:22;;;;;;;6.32;1.45;;;12.90;99.90;;;;;;4935762;29;20160;-68
2023/03/31 04:03:48;;;;;;;10.25;1.38;;;12.80;99.90;;;;;;4935715;29;20470;-69
2023/03/31 04:06:14;;;;;;;6.05;1.33;;;12.80;99.90;;;;;;4935360;29;20038;-69
2023/03/31 04:08:39;;;;;;;4.63;1.17;;;12.80;99.90;;;;;;4935634;29;20034;-69
2023/03/31 04:11:23;;;;;;;13.27;2.67;;;12.70;99.90;;;;;;4935014;29;20514;-68
2023/03/31 04:13:49;;;;;;;11.15;3.75;;;12.70;99.90;;;;;;4917982;29;20038;-69
2023/03/31 04:16:15;;;;;;;12.90;4.35;;;12.70;99.90;;;;;;4935040;29;20024;-68
2023/03/31 04:18:41;;;;;;;7.75;1.80;;;12.70;99.90;;;;;;4918368;29;20042;-69
2023/03/31 04:21:14;;;;;;;7.13;2.75;;;12.70;99.90;;;;;;4918546;29;20024;-68
2023/03/31 04:23:46;;;;;;;4.88;1.10;;;12.60;99.90;;;;;;4935277;29;20070;-69
2023/03/31 04:26:17;;;;;;;8.55;0.90;;;12.60;99.90;;;;;;4935107;29;20028;-70
2023/03/31 04:28:45;;;;;;;6.10;1.00;;;12.60;99.90;;;;;;4934987;29;20111;-69
2023/03/31 04:31:14;;;;;;;;;;;12.60;99.90;;;;;;4918306;29;20086;-70
2023/03/31 04:33:40;;;;;;;5.10;0.90;;;12.50;99.90;;;;;;4934878;29;20345;-69
2023/03/31 04:36:19;;;;;;;8.60;1.38;;;12.50;99.90;;;;;;4918243;29;20027;-68
2023/03/31 04:38:46;;;;;;;7.82;1.00;;;12.50;99.90;;;;;;4934816;29;20571;-69
2023/03/31 04:41:18;;;;;;;13.95;1.20;;;12.40;99.90;;;;;;4934703;29;20032;-68
2023/03/31 04:43:44;;;;;;;9.13;1.65;;;12.50;99.90;;;;;;4917596;29;20115;-68
2023/03/31 04:46:10;;;;;;;4.93;1.15;;;12.50;99.90;;;;;;4934375;29;20430;-71
2023/03/31 04:48:36;;;;;;;4.32;0.93;;;12.50;99.90;;;;;;4934502;29;20081;-68
2023/03/31 04:51:02;;;;;;;7.57;2.03;;;12.50;99.90;;;;;;4934918;29;20051;-67
2023/03/31 04:53:27;;;;;;;10.50;1.85;;;12.50;99.90;;;;;;4934256;29;20348;-68
2023/03/31 04:55:53;;;;;;;10.60;1.67;;;12.50;99.90;;;;;;4934252;29;20048;-68
2023/03/31 04:58:19;;;;;;;5.22;1.02;;;12.50;99.90;;;;;;4934321;29;20106;-68
2023/03/31 05:00:44;;;;;;;3.42;1.33;;;12.50;99.90;;;;;;4934250;29;20067;-69
2023/03/31 05:03:10;;;;;;;8.02;1.25;;;12.50;99.90;;;;;;4934185;29;20036;-68
2023/03/31 05:05:36;;;;;;;5.55;1.23;;;12.60;99.90;;;;;;4934188;29;20067;-67
2023/03/31 05:08:03;;;;;;;5.65;1.05;;;12.50;99.90;;;;;;4934145;29;20028;-69
2023/03/31 05:10:29;;;;;;;18.10;6.05;;;12.50;99.90;;;;;;4933254;29;20458;-68
2023/03/31 05:12:55;;;;;;;6.50;1.55;;;12.50;99.90;;;;;;4933968;29;20091;-69
2023/03/31 05:15:20;;;;;;;8.23;1.20;;;12.60;99.90;;;;;;4933998;29;20027;-68
2023/03/31 05:17:46;;;;;;;9.55;2.30;;;12.60;99.90;;;;;;4934445;29;20020;-70
2023/03/31 05:20:13;;;;;;;9.25;1.50;;;12.50;99.90;;;;;;4934240;29;20797;-68
2023/03/31 05:22:40;;;;;;;5.30;1.48;;;12.60;99.90;;;;;;4933785;29;20380;-69
2023/03/31 05:25:08;;;;;;;5.35;1.25;;;12.60;99.90;;;;;;4916952;29;20481;-68
2023/03/31 05:27:34;;;;;;;12.80;1.42;;;12.60;99.90;;;;;;4933701;29;20054;-68
2023/03/31 05:30:01;;;;;;;7.03;0.90;;;12.70;99.90;;;;;;4934691;29;20034;-69
2023/03/31 05:32:27;;;;;;;5.70;1.17;;;12.70;99.90;;;;;;4933602;29;20493;-68
2023/03/31 05:34:56;;;;;;;3.83;1.10;;;12.70;99.90;;;;;;4933791;29;20144;-69
2023/03/31 05:37:26;;;;;;;3.63;1.38;;;12.70;99.90;;;;;;4933656;29;20391;-69
2023/03/31 05:39:52;;;;;;;4.55;1.20;;;12.70;99.90;;;;;;4933645;29;20530;-68
2023/03/31 05:42:18;;;;;;;7.78;1.50;;;12.70;99.90;;;;;;4933554;29;20394;-68
2023/03/31 05:44:44;;;;;;;4.57;1.20;;;12.70;99.90;;;;;;4934252;29;20116;-67
2023/03/31 05:47:10;;;;;;;5.20;1.40;;;12.70;99.90;;;;;;4933570;29;20120;-68
2023/03/31 05:49:35;;;;;;;4.18;1.38;;;12.70;99.90;;;;;;4933676;29;20090;-69
2023/03/31 05:52:01;;;;;;;5.18;1.10;;;12.80;99.90;;;;;;4933459;29;20437;-69
2023/03/31 05:54:27;;;;;;;7.78;1.50;;;12.90;99.90;;;;;;4916272;29;20666;-70
2023/03/31 05:56:52;;;;;;;7.88;1.40;;;12.70;99.90;;;;;;4933835;29;20032;-70
2023/03/31 05:59:18;;;;;;;8.60;1.73;;;12.80;99.90;;;;;;4916391;29;20458;-69
2023/03/31 06:01:44;;;;;;;8.40;1.60;;;12.80;99.90;;;;;;4933044;29;20036;-70
2023/03/31 06:04:10;;;;;;;8.65;1.27;;;12.90;99.90;;;;;;4933270;29;20583;-70
2023/03/31 06:06:36;;;;;;;6.43;1.08;;;12.80;99.90;;;;;;4933179;29;20147;-70
2023/03/31 06:09:04;;;;;;;4.68;0.77;;;12.80;99.90;;;;;;4933554;29;20111;-69
2023/03/31 06:11:30;;;;;;;9.00;1.00;;;12.80;99.90;;;;;;4933034;29;20038;-69
2023/03/31 06:13:56;;;;;;;3.53;0.82;;;12.80;99.90;;;;;;4915263;29;20366;-70
2023/03/31 06:16:21;;;;;;;3.67;1.05;;;12.90;99.90;;;;;;4917258;29;20136;-69
2023/03/31 06:18:47;;;;;;;5.40;1.20;;;12.90;99.90;;;;;;4914205;29;20032;-69
2023/03/31 06:21:15;;;;;;;6.45;1.27;;;12.80;99.90;;;;;;4914608;29;20127;-71
2023/03/31 06:23:43;;;;;;;7.88;1.27;;;12.80;99.90;;;;;;4914352;29;20297;-69
2023/03/31 06:26:15;;;;;;;5.20;1.10;;;12.70;99.90;;;;;;4914097;29;20486;-70
2023/03/31 06:28:41;;;;;;;8.43;1.23;;;12.70;99.90;;;;;;4914244;29;20127;-71
2023/03/31 06:31:11;;;;;;;10.85;1.45;;;12.70;99.90;;;;;;4913034;29;20044;-71
2023/03/31 06:33:37;;;;;;;4.78;1.08;;;12.80;99.90;;;;;;4913990;29;20039;-70
2023/03/31 06:36:05;;;;;;;4.07;0.80;;;12.80;99.90;;;;;;4914295;29;20347;-70
2023/03/31 06:38:32;;;;;;;9.73;1.88;;;12.80;99.90;;;;;;4914069;29;20093;-69
2023/03/31 06:40:58;;;;;;;5.32;1.27;;;12.80;99.90;;;;;;4913780;29;20044;-68
2023/03/31 06:43:23;;;;;;;9.80;1.77;;;12.80;99.90;;;;;;4913764;29;20032;-69
2023/03/31 06:45:52;;;;;;;11.73;1.10;;;12.80;99.90;;;;;;4913802;29;20034;-69
2023/03/31 06:48:17;;;;;;;7.32;1.33;;;12.80;99.90;;;;;;4913880;29;20024;-68
2023/03/31 06:50:43;;;;;;;5.60;1.48;;;12.80;99.90;;;;;;4914748;29;20427;-67
2023/03/31 06:53:09;;;;;;;8.13;1.48;;;12.80;99.90;;;;;;4913897;29;20036;-69
2023/03/31 06:55:35;;;;;;;5.30;1.00;;;12.80;99.90;;;;;;4913951;29;20071;-69
2023/03/31 06:58:01;;;;;;;3.88;1.10;;;12.70;99.90;;;;;;4913881;29;20047;-70
2023/03/31 07:00:27;;;;;;;5.55;1.17;;;12.70;99.90;;;;;;4914220;29;20337;-68
2023/03/31 07:02:53;;;;;;;5.82;2.30;;;12.70;99.90;;;;;;4913588;29;20051;-68
2023/03/31 07:05:25;;;;;;;7.63;2.40;;;12.70;99.90;;;;;;4914060;29;20082;-69
2023/03/31 07:07:52;;;;;;;10.70;1.75;;;12.80;99.90;;;;;;4897348;29;20028;-68
2023/03/31 07:10:18;;;;;;;6.95;2.28;;;12.80;99.90;;;;;;4913809;29;20036;-69
2023/03/31 07:12:43;;;;;;;6.70;2.45;;;12.80;99.90;;;;;;4913891;29;20032;-70
2023/03/31 07:15:09;;;;;;;4.20;1.10;;;12.80;99.90;;;;;;4914199;29;20044;-69
2023/03/31 07:17:36;;;;;;;6.88;0.70;;;12.80;99.90;;;;;;4914140;29;20056;-69
2023/03/31 07:20:03;;;;;;;3.70;1.10;;;12.70;99.90;;;;;;4912706;29;20024;-68
2023/03/31 07:22:29;;;;;;;7.47;1.40;;;12.70;99.90;;;;;;4912683;29;20052;-70
2023/03/31 07:24:55;;;;;;;6.88;1.23;;;12.90;99.90;;;;;;4914279;29;20055;-70
2023/03/31 07:27:21;;;;;;;6.55;1.27;;;12.70;99.90;;;;;;4917450;29;20033;-69
2023/03/31 07:29:46;;;;;;;7.85;1.45;;;12.70;99.90;;;;;;4900867;29;20016;-68
2023/03/31 07:32:12;;;;;;;4.60;0.85;;;12.70;99.90;;;;;;4899949;29;20052;-68
2023/03/31 07:34:40;;;;;;;4.15;1.20;;;12.80;99.90;;;;;;4916934;29;20051;-68
2023/03/31 07:37:06;;;;;;;4.82;1.00;;;12.80;99.90;;;;;;4916913;29;20035;-70
2023/03/31 07:39:31;;;;;;;8.15;1.20;;;12.70;99.90;;;;;;4916998;29;20024;-69
2023/03/31 07:41:57;;;;;;;6.15;1.50;;;12.70;99.90;;;;;;4916233;29;20024;-69
2023/03/31 07:44:23;;;;;;;6.50;1.35;;;12.70;99.90;;;;;;4916707;29;20048;-68
2023/03/31 07:46:48;;;;;;;6.18;1.23;;;12.70;99.90;;;;;;4916654;29;20036;-68
2023/03/31 07:49:15;;;;;;;5.43;1.20;;;12.70;99.90;;;;;;4918090;29;20044;-69
2023/03/31 07:51:41;;;;;;;3.22;1.10;;;12.70;99.90;;;;;;4915435;29;20028;-69
2023/03/31 07:54:06;;;;;;;3.90;1.23;;;12.70;99.90;;;;;;4917015;29;20024;-68
2023/03/31 07:56:32;;;;;;;6.95;0.95;;;12.80;99.90;;;;;;4916589;29;20040;-70
2023/03/31 07:58:58;;;;;;;7.13;0.93;;;12.80;99.90;;;;;;4899789;29;20089;-69
2023/03/31 08:01:24;;;;;;;4.28;1.00;;;12.80;99.90;;;;;;4916317;29;20372;-69
2023/03/31 08:03:53;;;;;;;10.57;1.45;;;12.90;99.90;;;;;;4916328;29;20025;-69
2023/03/31 08:06:20;;;;;;;5.13;1.05;;;13.00;99.90;;;;;;4915144;29;20436;-69
2023/03/31 08:08:47;;;;;;;6.88;1.08;;;12.90;99.90;;;;;;4916808;29;20032;-70
2023/03/31 08:11:13;;;;;;;11.35;1.38;;;12.90;99.90;;;;;;4916090;29;20549;-70
2023/03/31 08:13:38;;;;;;;8.68;1.50;;;13.00;99.90;;;;;;4899360;29;20048;-69
2023/03/31 08:16:04;;;;;;;9.35;1.80;;;13.00;99.90;;;;;;4915857;29;20486;-67
2023/03/31 08:18:30;;;;;;;9.55;1.90;;;13.10;99.90;;;;;;4916284;29;20028;-68
2023/03/31 08:20:55;;;;;;;12.85;1.20;;;13.10;99.90;;;;;;4915745;29;20024;-69
2023/03/31 08:23:21;;;;;;;4.43;1.25;;;13.10;99.90;;;;;;4916319;29;20378;-69
2023/03/31 08:25:47;;;;;;;9.60;1.48;;;13.10;99.90;;;;;;4916233;29;20032;-69
2023/03/31 08:28:13;;;;;;;2.78;1.20;;;13.10;99.90;;;;;;4899375;29;20036;-70
2023/03/31 08:30:39;;;;;;;4.95;1.08;;;13.20;99.90;;;;;;4898977;29;20386;-69
2023/03/31 08:33:06;;;;;;;4.97;1.10;;;13.00;99.90;;;;;;4916500;29;20036;-70
2023/03/31 08:35:33;;;;;;;6.47;1.20;;;13.10;99.90;;;;;;4915799;29;20047;-68
2023/03/31 08:37:59;;;;;;;4.20;1.17;;;13.10;99.90;;;;;;4915261;29;20463;-70
2023/03/31 08:40:28;;;;;;;5.15;1.13;;;13.10;99.90;;;;;;4915844;29;20048;-69
2023/03/31 08:43:06;;;;;;;5.93;1.10;;;13.10;99.90;;;;;;4915833;29;20091;-67
2023/03/31 08:45:35;;;;;;;5.68;1.48;;;13.10;99.90;;;;;;4915889;29;20169;-69
2023/03/31 08:48:05;;;;;;;4.55;1.77;;;13.10;99.90;;;;;;4916421;29;20123;-71
2023/03/31 08:50:34;;;;;;;8.13;1.73;;;13.20;99.90;;;;;;4915640;29;20036;-68
2023/03/31 08:53:23;;;;;;;6.38;1.65;;;13.20;99.90;;;;;;4915652;29;20043;-69
2023/03/31 08:55:54;;;;;;;6.43;1.15;;;13.20;99.90;;;;;;4915738;29;20544;-69
2023/03/31 08:58:45;;;;;;;4.15;1.10;;;13.40;99.90;;;;;;4915597;29;20379;-69
2023/03/31 09:01:32;;;;;;;4.07;1.00;;;13.20;99.90;;;;;;4915464;29;20169;-69
2023/03/31 09:04:10;;;;;;;5.68;1.45;;;13.30;99.90;;;;;;4915647;29;20352;-69
2023/03/31 09:07:03;;;;;;;5.40;0.80;;;13.30;99.90;;;;;;4915633;29;20397;-69
2023/03/31 09:10:19;;;;;;;1.88;1.00;;;13.40;99.90;;;;;;4916014;29;20036;-68
2023/03/31 09:13:06;;;;;;;2.83;0.90;;;13.40;99.90;;;;;;4882322;29;20407;-69
2023/03/31 09:15:40;;;;;;;5.15;1.30;;;13.30;99.90;;;;;;4914276;29;20438;-70
2023/03/31 09:18:30;;;;;;;7.80;1.60;;;13.40;99.90;;;;;;4915709;29;20044;-71
2023/03/31 09:21:13;;;;;;;5.13;1.02;;;13.30;99.90;;;;;;4903806;29;20072;-71
2023/03/31 09:23:45;;;;;;;3.45;0.68;;;13.10;99.90;;;;;;4898488;29;20341;-71
2023/03/31 09:26:30;;;;;;;5.50;1.20;;;13.10;99.90;;;;;;4914907;29;20386;-69
2023/03/31 09:28:58;;;;;;;3.15;0.85;;;13.10;99.90;;;;;;4914944;29;20051;-70
2023/03/31 09:31:25;;;;;;;3.30;1.08;;;13.20;99.90;;;;;;4914572;29;20174;-70
2023/03/31 09:33:56;;;;;;;5.57;1.20;;;13.10;99.90;;;;;;4915069;29;20427;-70
2023/03/31 09:36:22;;;;;;;6.72;0.82;;;13.10;99.90;;;;;;4914811;29;20043;-70
2023/03/31 09:38:48;;;;;;;6.80;1.40;;;13.10;99.90;;;;;;4914337;29;20028;-71
2023/03/31 09:41:15;;;;;;;7.88;1.13;;;13.10;99.90;;;;;;4898093;29;20043;-70
2023/03/31 09:43:44;;;;;;;5.30;1.60;;;13.10;99.90;;;;;;4914677;29;20028;-69
2023/03/31 09:46:28;;;;;;;3.08;1.23;;;13.10;99.90;;;;;;4914720;29;20462;-68
2023/03/31 09:49:12;;;;;;;1.63;0.70;;;13.10;99.90;;;;;;4914299;29;20046;-69
2023/03/31 09:51:43;;;;;;;5.50;0.85;;;13.10;99.90;;;;;;4913460;29;20099;-71
2023/03/31 09:54:27;;;;;;;2.92;0.98;;;13.10;99.90;;;;;;4914989;29;20040;-68
2023/03/31 09:56:53;;;;;;;2.95;0.70;;;13.10;99.90;;;;;;4914677;29;20052;-69
2023/03/31 09:59:44;;;;;;;2.20;0.90;;;13.10;99.90;;;;;;4914797;29;20031;-70
2023/03/31 10:02:35;;;;;;;3.75;1.05;;;13.10;99.90;;;;;;4904598;29;20043;-69
2023/03/31 10:05:03;;;;;;;6.75;2.30;;;13.00;99.90;;;;;;4914441;29;20032;-69
2023/03/31 10:07:29;;;;;;;7.50;1.45;;;13.00;99.90;;;;;;4914628;29;20050;-68
2023/03/31 10:09:56;;;;;;;4.43;0.80;;;13.00;99.90;;;;;;4914374;29;20450;-68
2023/03/31 10:12:27;;;;;;;3.08;0.68;;;13.10;99.90;;;;;;4913524;29;20056;-69
2023/03/31 10:15:01;;;;;;;2.88;0.80;;;13.10;99.90;;;;;;4915233;29;20044;-70
2023/03/31 10:17:27;;;;;;;3.55;0.88;;;13.10;99.90;;;;;;4914362;29;20036;-71
2023/03/31 10:19:56;;;;;;;2.25;0.80;;;13.20;99.90;;;;;;4897787;29;20433;-70
2023/03/31 10:22:22;;;;;;;2.97;0.70;;;13.10;99.90;;;;;;4897424;29;20032;-70
2023/03/31 10:24:50;;;;;;;3.55;0.85;;;13.10;99.90;;;;;;4914178;29;20048;-69
2023/03/31 10:27:23;;;;;;;5.00;0.82;;;13.10;99.90;;;;;;4914369;29;20378;-71
2023/03/31 10:30:10;;;;;;;4.85;1.05;;;13.10;99.90;;;;;;4898118;29;20478;-69
2023/03/31 10:32:43;;;;;;;5.63;1.33;;;13.20;99.90;;;;;;4913219;29;20048;-69
2023/03/31 10:35:32;;;;;;;3.67;1.38;;;13.10;99.90;;;;;;4913245;29;20044;-69
2023/03/31 10:38:03;;;;;;;1.55;0.80;;;13.00;99.90;;;;;;4914371;29;20095;-69
2023/03/31 10:40:32;;;;;;;2.75;0.80;;;12.90;99.90;;;;;;4914309;29;20040;-70
2023/03/31 10:43:08;;;;;;;1.95;0.55;;;13.00;99.90;;;;;;4913018;29;20055;-70
2023/03/31 10:45:48;;;;;;;6.55;1.75;;;13.00;99.90;;;;;;4914056;29;20075;-70
2023/03/31 10:48:37;;;;;;;2.63;1.10;;;13.00;99.90;;;;;;4898902;29;20024;-71
2023/03/31 10:51:26;;;;;;;2.33;0.77;;;13.00;99.90;;;;;;4914441;29;20152;-70
2023/03/31 10:53:54;;;;;;;2.97;1.30;;;13.00;99.90;;;;;;4914150;29;20036;-70
2023/03/31 10:56:43;;;;;;;3.42;0.98;;;13.00;99.90;;;;;;4914056;29;20040;-68
2023/03/31 10:59:18;;;;;;;2.17;0.90;;;12.90;99.90;;;;;;4913123;29;20119;-71
2023/03/31 11:02:05;;;;;;;3.80;0.90;;;13.00;99.90;;;;;;4917180;29;20047;-68
2023/03/31 11:04:54;;;;;;;2.50;1.20;;;13.00;99.90;;;;;;4917733;29;20091;-70
2023/03/31 11:07:38;;;;;;;2.70;0.55;;;13.00;99.90;;;;;;4917626;29;20601;-70
2023/03/31 11:10:18;;;;;;;4.05;1.00;;;13.10;99.90;;;;;;4917320;29;20379;-68
2023/03/31 11:13:15;;;;;;;4.97;1.15;;;13.20;99.90;;;;;;4916348;29;20043;-71
2023/03/31 11:16:08;;;;;;;3.47;1.67;;;13.10;99.90;;;;;;4916203;29;20043;-71
2023/03/31 11:18:58;;;;;;;1.83;0.68;;;13.10;99.90;;;;;;4916090;29;20263;-69
2023/03/31 11:21:55;;;;;;;2.25;0.88;;;13.10;99.90;;;;;;4917246;29;20357;-67
2023/03/31 11:24:32;;;;;;;2.27;0.70;;;13.10;99.90;;;;;;4915963;29;20028;-68
2023/03/31 11:27:23;;;;;;;3.05;0.73;;;13.10;99.90;;;;;;4917438;29;20067;-70
2023/03/31 11:30:08;;;;;;;3.55;0.82;;;13.20;99.90;;;;;;4917294;29;20048;-69
2023/03/31 11:32:55;;;;;;;2.97;1.25;;;13.20;99.90;;;;;;4916858;29;20064;-70
2023/03/31 11:35:58;;;;;;;4.13;1.73;;;13.20;99.90;;;;;;4915954;29;20423;-69
2023/03/31 11:38:49;;;;;;;5.90;0.90;;;13.20;99.90;;;;;;4915942;29;20067;-70
2023/03/31 11:41:27;;;;;;;2.35;0.90;;;13.30;99.90;;;;;;4916820;29;20028;-69
2023/03/31 11:43:59;;;;;;;3.75;0.70;;;13.20;99.90;;;;;;4917044;29;20199;-70
2023/03/31 11:46:26;;;;;;;1.67;0.75;;;13.20;99.90;;;;;;4916804;29;20367;-69
2023/03/31 11:48:58;;;;;;;3.03;0.82;;;13.20;99.90;;;;;;4916824;29;20028;-68
2023/03/31 11:51:43;;;;;;;2.20;0.85;;;13.20;99.90;;;;;;4915946;29;20123;-69
2023/03/31 11:54:30;;;;;;;3.05;0.70;;;13.30;99.90;;;;;;4900522;29;20111;-70
2023/03/31 11:56:56;;;;;;;1.98;0.77;;;13.30;99.90;;;;;;4900243;29;20482;-69
2023/03/31 11:59:28;;;;;;;5.60;2.50;;;13.30;99.90;;;;;;4916982;29;20040;-68
2023/03/31 12:02:11;;;;;;;7.00;3.65;;;13.30;99.90;;;;;;4916901;29;20051;-68
2023/03/31 12:04:42;;;;;;;3.55;1.00;;;13.20;99.90;;;;;;4916564;29;20086;-69
2023/03/31 12:07:36;;;;;;;0.93;0.63;;;13.30;99.90;;;;;;4892910;29;20466;-68
2023/03/31 12:10:10;;;;;;;2.15;0.68;;;13.40;99.90;;;;;;4906073;29;20072;-69
2023/03/31 12:12:42;;;;;;;4.07;0.82;;;13.50;99.90;;;;;;4915109;29;20051;-69
2023/03/31 12:15:24;;;;;;;3.63;0.60;;;13.30;99.90;;;;;;4917065;29;20111;-69
2023/03/31 12:18:08;;;;;;;1.90;0.50;;;13.40;99.90;;;;;;4916262;29;20071;-70
2023/03/31 12:20:40;;;;;;;3.10;0.73;;;13.40;99.90;;;;;;4916295;29;20051;-68
2023/03/31 12:23:15;;;;;;;1.17;0.57;;;13.40;99.90;;;;;;4915243;29;20136;-69
2023/03/31 12:26:07;;;;;;;1.92;0.82;;;13.40;99.90;;;;;;4899511;29;20116;-69
2023/03/31 12:28:37;;;;;;;2.90;0.73;;;13.50;99.90;;;;;;4915522;29;20036;-70
2023/03/31 12:31:05;;;;;;;1.98;0.60;;;13.50;99.90;;;;;;4914754;29;20474;-69
2023/03/31 12:33:35;;;;;;;2.63;0.85;;;13.50;99.90;;;;;;4915969;29;20024;-70
2023/03/31 12:36:51;;;;;;;4.63;0.75;;;13.60;99.90;;;;;;4915474;29;20047;-69
2023/03/31 12:39:22;;;;;;;1.75;0.77;;;13.60;99.90;;;;;;4802863;29;20100;-69
2023/03/31 12:42:30;;;;;;;0.90;0.60;;;13.70;99.90;;;;;;4880658;29;20056;-69
2023/03/31 12:44:59;;;;;;;;;;;13.80;99.90;;;;;;4916260;29;20036;-69
2023/03/31 12:47:43;;;;;;;2.20;0.60;;;13.80;99.90;;;;;;4915861;29;19915;-69
2023/03/31 12:50:31;;;;;;;1.85;0.90;;;13.80;99.90;;;;;;4915812;29;20032;-70
2023/03/31 12:53:16;;;;;;;1.58;0.70;;;13.80;99.90;;;;;;4915858;29;20115;-70
2023/03/31 12:55:46;;;;;;;0.95;0.73;;;13.90;99.90;;;;;;4915497;29;20040;-68
2023/03/31 12:58:25;;;;;;;1.50;0.60;;;14.00;99.90;;;;;;4898736;29;20032;-67
2023/03/31 13:01:09;;;;;;;2.22;0.80;;;14.10;99.90;;;;;;4915333;29;20165;-71
2023/03/31 13:03:34;;;;;;;1.23;0.50;;;14.10;99.90;;;;;;4915707;29;20028;-68
2023/03/31 13:06:03;;;;;;;4.50;0.73;;;14.30;99.90;;;;;;4914837;29;20028;-69
2023/03/31 13:08:48;;;;;;;1.50;0.80;;;14.40;99.90;;;;;;4898515;29;20043;-69
2023/03/31 13:11:15;;;;;;;2.08;0.65;;;14.50;99.90;;;;;;4914443;29;20037;-68
2023/03/31 13:13:52;;;;;;;2.75;1.00;;;14.50;99.90;;;;;;4916310;29;20052;-69